sensor_id;sensor_type;location;lat;lon;timestamp;P1;durP1;ratioP1;P2;durP2;ratioP2
36379;SDS011;22411;53.016;18.632;2023-05-27T00:00:05;7.95;;;2.92;;
36379;SDS011;22411;53.016;18.632;2023-05-27T00:02:53;8.90;;;3.40;;
36379;SDS011;22411;53.016;18.632;2023-05-27T00:05:18;10.00;;;3.00;;
36379;SDS011;22411;53.016;18.632;2023-05-27T00:07:44;12.48;;;3.38;;
36379;SDS011;22411;53.016;18.632;2023-05-27T00:10:10;13.70;;;3.45;;
36379;SDS011;22411;53.016;18.632;2023-05-27T00:12:36;10.23;;;3.10;;
36379;SDS011;22411;53.016;18.632;2023-05-27T00:15:01;13.57;;;3.28;;
36379;SDS011;22411;53.016;18.632;2023-05-27T00:17:27;10.63;;;3.53;;
36379;SDS011;22411;53.016;18.632;2023-05-27T00:19:53;14.55;;;4.05;;
36379;SDS011;22411;53.016;18.632;2023-05-27T00:22:19;12.02;;;3.75;;
36379;SDS011;22411;53.016;18.632;2023-05-27T00:24:45;10.80;;;3.42;;
36379;SDS011;22411;53.016;18.632;2023-05-27T00:27:11;10.32;;;3.30;;
36379;SDS011;22411;53.016;18.632;2023-05-27T00:29:36;13.95;;;3.08;;
36379;SDS011;22411;53.016;18.632;2023-05-27T00:32:02;10.18;;;3.13;;
36379;SDS011;22411;53.016;18.632;2023-05-27T00:34:29;12.90;;;4.03;;
36379;SDS011;22411;53.016;18.632;2023-05-27T00:36:55;10.20;;;3.03;;
36379;SDS011;22411;53.016;18.632;2023-05-27T00:39:21;9.88;;;3.45;;
36379;SDS011;22411;53.016;18.632;2023-05-27T00:41:48;8.57;;;2.45;;
36379;SDS011;22411;53.016;18.632;2023-05-27T00:44:15;8.73;;;2.65;;
36379;SDS011;22411;53.016;18.632;2023-05-27T00:46:42;10.50;;;3.90;;
36379;SDS011;22411;53.016;18.632;2023-05-27T00:49:09;10.52;;;2.85;;
36379;SDS011;22411;53.016;18.632;2023-05-27T00:51:35;8.10;;;3.55;;
36379;SDS011;22411;53.016;18.632;2023-05-27T00:54:01;10.68;;;3.45;;
36379;SDS011;22411;53.016;18.632;2023-05-27T00:56:27;9.10;;;4.00;;
36379;SDS011;22411;53.016;18.632;2023-05-27T00:58:52;18.02;;;5.60;;
36379;SDS011;22411;53.016;18.632;2023-05-27T01:01:18;14.77;;;5.93;;
36379;SDS011;22411;53.016;18.632;2023-05-27T01:03:44;17.30;;;4.55;;
36379;SDS011;22411;53.016;18.632;2023-05-27T01:09:09;9.27;;;3.22;;
36379;SDS011;22411;53.016;18.632;2023-05-27T01:11:50;9.73;;;3.88;;
36379;SDS011;22411;53.016;18.632;2023-05-27T01:14:23;12.77;;;4.03;;
36379;SDS011;22411;53.016;18.632;2023-05-27T01:16:51;11.65;;;4.13;;
36379;SDS011;22411;53.016;18.632;2023-05-27T01:19:30;10.90;;;4.50;;
36379;SDS011;22411;53.016;18.632;2023-05-27T01:21:58;13.27;;;4.07;;
36379;SDS011;22411;53.016;18.632;2023-05-27T01:24:26;10.25;;;3.67;;
36379;SDS011;22411;53.016;18.632;2023-05-27T01:26:52;11.10;;;4.90;;
36379;SDS011;22411;53.016;18.632;2023-05-27T01:29:19;11.57;;;4.90;;
36379;SDS011;22411;53.016;18.632;2023-05-27T01:31:54;16.98;;;5.07;;
36379;SDS011;22411;53.016;18.632;2023-05-27T01:34:44;15.20;;;4.55;;
36379;SDS011;22411;53.016;18.632;2023-05-27T01:37:16;12.50;;;3.78;;
36379;SDS011;22411;53.016;18.632;2023-05-27T01:39:46;13.52;;;3.60;;
36379;SDS011;22411;53.016;18.632;2023-05-27T01:42:14;13.52;;;4.05;;
36379;SDS011;22411;53.016;18.632;2023-05-27T01:44:40;12.57;;;4.32;;
36379;SDS011;22411;53.016;18.632;2023-05-27T01:47:07;11.10;;;4.88;;
36379;SDS011;22411;53.016;18.632;2023-05-27T01:49:33;14.40;;;3.97;;
36379;SDS011;22411;53.016;18.632;2023-05-27T01:52:00;10.90;;;3.03;;
36379;SDS011;22411;53.016;18.632;2023-05-27T01:54:26;12.32;;;3.72;;
36379;SDS011;22411;53.016;18.632;2023-05-27T01:56:52;13.23;;;4.32;;
36379;SDS011;22411;53.016;18.632;2023-05-27T01:59:17;11.38;;;4.90;;
36379;SDS011;22411;53.016;18.632;2023-05-27T02:01:43;11.50;;;3.65;;
36379;SDS011;22411;53.016;18.632;2023-05-27T02:04:09;13.00;;;4.57;;
36379;SDS011;22411;53.016;18.632;2023-05-27T02:06:35;15.85;;;4.25;;
36379;SDS011;22411;53.016;18.632;2023-05-27T02:09:01;17.40;;;4.68;;
36379;SDS011;22411;53.016;18.632;2023-05-27T02:11:27;13.20;;;4.40;;
36379;SDS011;22411;53.016;18.632;2023-05-27T02:13:52;13.45;;;4.75;;
36379;SDS011;22411;53.016;18.632;2023-05-27T02:16:18;14.52;;;4.25;;
36379;SDS011;22411;53.016;18.632;2023-05-27T02:18:47;15.90;;;5.15;;
36379;SDS011;22411;53.016;18.632;2023-05-27T02:21:16;15.52;;;4.47;;
36379;SDS011;22411;53.016;18.632;2023-05-27T02:23:42;13.23;;;3.90;;
36379;SDS011;22411;53.016;18.632;2023-05-27T02:26:08;16.38;;;4.88;;
36379;SDS011;22411;53.016;18.632;2023-05-27T02:28:33;12.45;;;4.32;;
36379;SDS011;22411;53.016;18.632;2023-05-27T02:30:59;9.55;;;4.38;;
36379;SDS011;22411;53.016;18.632;2023-05-27T02:33:25;25.10;;;5.93;;
36379;SDS011;22411;53.016;18.632;2023-05-27T02:35:51;15.13;;;4.30;;
36379;SDS011;22411;53.016;18.632;2023-05-27T02:38:16;16.08;;;4.72;;
36379;SDS011;22411;53.016;18.632;2023-05-27T02:40:42;10.85;;;4.30;;
36379;SDS011;22411;53.016;18.632;2023-05-27T02:43:08;15.13;;;4.72;;
36379;SDS011;22411;53.016;18.632;2023-05-27T02:45:34;14.55;;;4.15;;
36379;SDS011;22411;53.016;18.632;2023-05-27T02:47:59;13.85;;;4.57;;
36379;SDS011;22411;53.016;18.632;2023-05-27T02:50:26;13.88;;;4.20;;
36379;SDS011;22411;53.016;18.632;2023-05-27T02:52:52;16.63;;;4.88;;
36379;SDS011;22411;53.016;18.632;2023-05-27T02:55:18;17.42;;;5.03;;
36379;SDS011;22411;53.016;18.632;2023-05-27T02:57:44;16.50;;;5.20;;
36379;SDS011;22411;53.016;18.632;2023-05-27T03:00:10;16.65;;;4.65;;
36379;SDS011;22411;53.016;18.632;2023-05-27T03:02:36;13.60;;;4.28;;
36379;SDS011;22411;53.016;18.632;2023-05-27T03:05:02;17.60;;;5.75;;
36379;SDS011;22411;53.016;18.632;2023-05-27T03:07:28;12.43;;;3.70;;
36379;SDS011;22411;53.016;18.632;2023-05-27T03:09:55;17.65;;;5.82;;
36379;SDS011;22411;53.016;18.632;2023-05-27T03:12:21;13.32;;;4.78;;
36379;SDS011;22411;53.016;18.632;2023-05-27T03:14:47;16.20;;;5.40;;
36379;SDS011;22411;53.016;18.632;2023-05-27T03:17:13;13.02;;;4.63;;
36379;SDS011;22411;53.016;18.632;2023-05-27T03:19:39;15.15;;;4.70;;
36379;SDS011;22411;53.016;18.632;2023-05-27T03:22:04;13.75;;;4.68;;
36379;SDS011;22411;53.016;18.632;2023-05-27T03:24:33;12.25;;;4.93;;
36379;SDS011;22411;53.016;18.632;2023-05-27T03:26:58;16.65;;;5.68;;
36379;SDS011;22411;53.016;18.632;2023-05-27T03:29:25;13.52;;;4.30;;
36379;SDS011;22411;53.016;18.632;2023-05-27T03:31:50;14.65;;;5.68;;
36379;SDS011;22411;53.016;18.632;2023-05-27T03:34:16;20.05;;;5.25;;
36379;SDS011;22411;53.016;18.632;2023-05-27T03:36:42;15.70;;;5.40;;
36379;SDS011;22411;53.016;18.632;2023-05-27T03:39:12;15.02;;;4.50;;
36379;SDS011;22411;53.016;18.632;2023-05-27T03:41:38;17.88;;;6.00;;
36379;SDS011;22411;53.016;18.632;2023-05-27T03:44:04;15.35;;;5.35;;
36379;SDS011;22411;53.016;18.632;2023-05-27T03:46:29;15.48;;;6.90;;
36379;SDS011;22411;53.016;18.632;2023-05-27T03:48:55;21.70;;;10.15;;
36379;SDS011;22411;53.016;18.632;2023-05-27T03:51:21;23.35;;;10.25;;
36379;SDS011;22411;53.016;18.632;2023-05-27T03:53:47;24.77;;;13.93;;
36379;SDS011;22411;53.016;18.632;2023-05-27T03:56:13;28.33;;;14.85;;
36379;SDS011;22411;53.016;18.632;2023-05-27T03:58:38;28.75;;;13.88;;
36379;SDS011;22411;53.016;18.632;2023-05-27T04:01:04;20.02;;;8.85;;
36379;SDS011;22411;53.016;18.632;2023-05-27T04:03:31;23.92;;;8.07;;
36379;SDS011;22411;53.016;18.632;2023-05-27T04:05:57;36.50;;;9.23;;
36379;SDS011;22411;53.016;18.632;2023-05-27T04:08:23;21.60;;;7.53;;
36379;SDS011;22411;53.016;18.632;2023-05-27T04:10:55;17.00;;;7.28;;
36379;SDS011;22411;53.016;18.632;2023-05-27T04:13:21;19.35;;;7.05;;
36379;SDS011;22411;53.016;18.632;2023-05-27T04:15:47;14.38;;;6.55;;
36379;SDS011;22411;53.016;18.632;2023-05-27T04:18:14;19.75;;;6.40;;
36379;SDS011;22411;53.016;18.632;2023-05-27T04:20:40;16.55;;;5.40;;
36379;SDS011;22411;53.016;18.632;2023-05-27T04:23:09;13.20;;;5.00;;
36379;SDS011;22411;53.016;18.632;2023-05-27T04:25:35;18.80;;;5.22;;
36379;SDS011;22411;53.016;18.632;2023-05-27T04:28:02;18.02;;;5.50;;
36379;SDS011;22411;53.016;18.632;2023-05-27T04:30:32;15.02;;;4.53;;
36379;SDS011;22411;53.016;18.632;2023-05-27T04:32:59;17.38;;;4.97;;
36379;SDS011;22411;53.016;18.632;2023-05-27T04:35:25;10.32;;;4.13;;
36379;SDS011;22411;53.016;18.632;2023-05-27T04:37:51;22.90;;;4.60;;
36379;SDS011;22411;53.016;18.632;2023-05-27T04:40:17;17.40;;;5.28;;
36379;SDS011;22411;53.016;18.632;2023-05-27T04:42:43;14.43;;;3.47;;
36379;SDS011;22411;53.016;18.632;2023-05-27T04:45:09;17.02;;;4.78;;
36379;SDS011;22411;53.016;18.632;2023-05-27T04:47:38;13.43;;;3.85;;
36379;SDS011;22411;53.016;18.632;2023-05-27T04:50:09;14.65;;;4.70;;
36379;SDS011;22411;53.016;18.632;2023-05-27T04:52:36;12.20;;;4.32;;
36379;SDS011;22411;53.016;18.632;2023-05-27T04:55:07;14.10;;;3.97;;
36379;SDS011;22411;53.016;18.632;2023-05-27T04:57:35;14.07;;;5.38;;
36379;SDS011;22411;53.016;18.632;2023-05-27T05:00:02;18.88;;;5.20;;
36379;SDS011;22411;53.016;18.632;2023-05-27T05:02:33;15.15;;;5.25;;
36379;SDS011;22411;53.016;18.632;2023-05-27T05:05:03;20.38;;;5.38;;
36379;SDS011;22411;53.016;18.632;2023-05-27T05:07:31;11.35;;;4.13;;
36379;SDS011;22411;53.016;18.632;2023-05-27T05:09:57;12.93;;;4.32;;
36379;SDS011;22411;53.016;18.632;2023-05-27T05:12:23;9.40;;;4.03;;
36379;SDS011;22411;53.016;18.632;2023-05-27T05:14:51;12.75;;;4.28;;
36379;SDS011;22411;53.016;18.632;2023-05-27T05:17:17;12.52;;;4.43;;
36379;SDS011;22411;53.016;18.632;2023-05-27T05:19:43;14.43;;;3.65;;
36379;SDS011;22411;53.016;18.632;2023-05-27T05:22:10;15.93;;;3.70;;
36379;SDS011;22411;53.016;18.632;2023-05-27T05:24:38;16.38;;;3.88;;
36379;SDS011;22411;53.016;18.632;2023-05-27T05:27:04;13.18;;;3.72;;
36379;SDS011;22411;53.016;18.632;2023-05-27T05:29:31;8.93;;;3.13;;
36379;SDS011;22411;53.016;18.632;2023-05-27T05:31:57;10.27;;;3.47;;
36379;SDS011;22411;53.016;18.632;2023-05-27T05:34:23;9.73;;;3.55;;
36379;SDS011;22411;53.016;18.632;2023-05-27T05:36:49;10.95;;;3.20;;
36379;SDS011;22411;53.016;18.632;2023-05-27T05:39:14;12.52;;;3.25;;
36379;SDS011;22411;53.016;18.632;2023-05-27T05:41:41;9.70;;;3.63;;
36379;SDS011;22411;53.016;18.632;2023-05-27T05:44:06;10.30;;;3.25;;
36379;SDS011;22411;53.016;18.632;2023-05-27T05:46:32;11.88;;;3.03;;
36379;SDS011;22411;53.016;18.632;2023-05-27T05:48:57;8.63;;;3.55;;
36379;SDS011;22411;53.016;18.632;2023-05-27T05:51:23;6.95;;;2.10;;
36379;SDS011;22411;53.016;18.632;2023-05-27T05:53:49;9.38;;;2.65;;
36379;SDS011;22411;53.016;18.632;2023-05-27T05:56:15;8.35;;;3.50;;
36379;SDS011;22411;53.016;18.632;2023-05-27T05:58:40;7.13;;;2.40;;
36379;SDS011;22411;53.016;18.632;2023-05-27T06:01:06;6.90;;;2.25;;
36379;SDS011;22411;53.016;18.632;2023-05-27T06:03:32;4.35;;;1.88;;
36379;SDS011;22411;53.016;18.632;2023-05-27T06:05:58;5.07;;;1.95;;
36379;SDS011;22411;53.016;18.632;2023-05-27T06:08:23;7.20;;;1.55;;
36379;SDS011;22411;53.016;18.632;2023-05-27T06:10:49;7.82;;;2.03;;
36379;SDS011;22411;53.016;18.632;2023-05-27T06:13:16;5.00;;;0.93;;
36379;SDS011;22411;53.016;18.632;2023-05-27T06:15:42;4.05;;;0.88;;
36379;SDS011;22411;53.016;18.632;2023-05-27T06:18:08;4.68;;;1.23;;
36379;SDS011;22411;53.016;18.632;2023-05-27T06:20:34;4.40;;;1.30;;
36379;SDS011;22411;53.016;18.632;2023-05-27T06:22:59;5.63;;;1.38;;
36379;SDS011;22411;53.016;18.632;2023-05-27T06:25:25;3.80;;;1.17;;
36379;SDS011;22411;53.016;18.632;2023-05-27T06:27:51;4.88;;;0.88;;
36379;SDS011;22411;53.016;18.632;2023-05-27T06:30:16;3.70;;;0.90;;
36379;SDS011;22411;53.016;18.632;2023-05-27T06:32:42;3.38;;;0.90;;
36379;SDS011;22411;53.016;18.632;2023-05-27T06:35:08;4.65;;;0.90;;
36379;SDS011;22411;53.016;18.632;2023-05-27T06:37:33;5.25;;;1.20;;
36379;SDS011;22411;53.016;18.632;2023-05-27T06:39:59;6.13;;;0.88;;
36379;SDS011;22411;53.016;18.632;2023-05-27T06:42:25;3.90;;;0.95;;
36379;SDS011;22411;53.016;18.632;2023-05-27T06:44:51;2.38;;;0.73;;
36379;SDS011;22411;53.016;18.632;2023-05-27T06:47:17;3.63;;;0.40;;
36379;SDS011;22411;53.016;18.632;2023-05-27T06:49:42;4.13;;;0.75;;
36379;SDS011;22411;53.016;18.632;2023-05-27T06:52:08;4.13;;;0.45;;
36379;SDS011;22411;53.016;18.632;2023-05-27T06:54:35;2.78;;;0.60;;
36379;SDS011;22411;53.016;18.632;2023-05-27T06:57:01;4.68;;;1.00;;
36379;SDS011;22411;53.016;18.632;2023-05-27T06:59:28;2.88;;;0.30;;
36379;SDS011;22411;53.016;18.632;2023-05-27T07:01:53;1.15;;;0.30;;
36379;SDS011;22411;53.016;18.632;2023-05-27T07:04:21;2.33;;;0.52;;
36379;SDS011;22411;53.016;18.632;2023-05-27T07:06:47;3.53;;;0.30;;
36379;SDS011;22411;53.016;18.632;2023-05-27T07:09:13;2.30;;;0.30;;
36379;SDS011;22411;53.016;18.632;2023-05-27T07:11:39;2.47;;;0.50;;
36379;SDS011;22411;53.016;18.632;2023-05-27T07:14:05;3.83;;;0.55;;
36379;SDS011;22411;53.016;18.632;2023-05-27T07:16:31;1.92;;;0.30;;
36379;SDS011;22411;53.016;18.632;2023-05-27T07:18:57;4.13;;;0.70;;
36379;SDS011;22411;53.016;18.632;2023-05-27T07:21:23;2.70;;;0.65;;
36379;SDS011;22411;53.016;18.632;2023-05-27T07:23:49;3.33;;;0.77;;
36379;SDS011;22411;53.016;18.632;2023-05-27T07:26:14;3.25;;;0.40;;
36379;SDS011;22411;53.016;18.632;2023-05-27T07:28:40;6.72;;;0.70;;
36379;SDS011;22411;53.016;18.632;2023-05-27T07:31:06;3.53;;;0.70;;
36379;SDS011;22411;53.016;18.632;2023-05-27T07:33:31;2.95;;;0.30;;
36379;SDS011;22411;53.016;18.632;2023-05-27T07:35:57;2.70;;;0.40;;
36379;SDS011;22411;53.016;18.632;2023-05-27T07:38:23;1.77;;;0.55;;
36379;SDS011;22411;53.016;18.632;2023-05-27T07:40:48;3.47;;;0.50;;
36379;SDS011;22411;53.016;18.632;2023-05-27T07:43:15;3.50;;;1.05;;
36379;SDS011;22411;53.016;18.632;2023-05-27T07:45:41;2.90;;;0.60;;
36379;SDS011;22411;53.016;18.632;2023-05-27T07:48:06;4.32;;;0.52;;
36379;SDS011;22411;53.016;18.632;2023-05-27T07:50:32;3.88;;;0.77;;
36379;SDS011;22411;53.016;18.632;2023-05-27T07:52:58;2.30;;;0.70;;
36379;SDS011;22411;53.016;18.632;2023-05-27T07:55:24;4.18;;;0.60;;
36379;SDS011;22411;53.016;18.632;2023-05-27T07:57:50;3.55;;;0.57;;
36379;SDS011;22411;53.016;18.632;2023-05-27T08:00:15;2.00;;;0.38;;
36379;SDS011;22411;53.016;18.632;2023-05-27T08:02:41;2.75;;;0.57;;
36379;SDS011;22411;53.016;18.632;2023-05-27T08:05:08;8.90;;;0.80;;
36379;SDS011;22411;53.016;18.632;2023-05-27T08:07:35;2.80;;;0.30;;
36379;SDS011;22411;53.016;18.632;2023-05-27T08:10:01;1.77;;;0.20;;
36379;SDS011;22411;53.016;18.632;2023-05-27T08:12:27;1.45;;;0.32;;
36379;SDS011;22411;53.016;18.632;2023-05-27T08:14:52;2.33;;;0.30;;
36379;SDS011;22411;53.016;18.632;2023-05-27T08:17:18;1.58;;;0.40;;
36379;SDS011;22411;53.016;18.632;2023-05-27T08:19:44;2.95;;;0.40;;
36379;SDS011;22411;53.016;18.632;2023-05-27T08:22:09;1.10;;;0.30;;
36379;SDS011;22411;53.016;18.632;2023-05-27T08:24:35;1.75;;;0.50;;
36379;SDS011;22411;53.016;18.632;2023-05-27T08:27:01;1.08;;;0.30;;
36379;SDS011;22411;53.016;18.632;2023-05-27T08:29:32;2.15;;;0.50;;
36379;SDS011;22411;53.016;18.632;2023-05-27T08:31:58;2.83;;;0.30;;
36379;SDS011;22411;53.016;18.632;2023-05-27T08:34:24;4.97;;;0.30;;
36379;SDS011;22411;53.016;18.632;2023-05-27T08:36:51;2.25;;;0.40;;
36379;SDS011;22411;53.016;18.632;2023-05-27T08:39:17;0.95;;;0.35;;
36379;SDS011;22411;53.016;18.632;2023-05-27T08:41:42;1.77;;;0.30;;
36379;SDS011;22411;53.016;18.632;2023-05-27T08:44:08;2.42;;;0.32;;
36379;SDS011;22411;53.016;18.632;2023-05-27T08:46:34;1.67;;;0.20;;
36379;SDS011;22411;53.016;18.632;2023-05-27T08:49:01;1.27;;;0.22;;
36379;SDS011;22411;53.016;18.632;2023-05-27T08:51:27;1.15;;;0.20;;
36379;SDS011;22411;53.016;18.632;2023-05-27T08:53:53;1.63;;;0.20;;
36379;SDS011;22411;53.016;18.632;2023-05-27T08:56:19;0.88;;;0.10;;
36379;SDS011;22411;53.016;18.632;2023-05-27T08:58:48;1.95;;;0.35;;
36379;SDS011;22411;53.016;18.632;2023-05-27T09:01:18;3.40;;;0.20;;
36379;SDS011;22411;53.016;18.632;2023-05-27T09:03:44;2.00;;;0.20;;
36379;SDS011;22411;53.016;18.632;2023-05-27T09:06:10;2.50;;;0.45;;
36379;SDS011;22411;53.016;18.632;2023-05-27T09:08:36;1.73;;;0.20;;
36379;SDS011;22411;53.016;18.632;2023-05-27T09:11:02;3.50;;;0.47;;
36379;SDS011;22411;53.016;18.632;2023-05-27T09:13:30;2.65;;;0.43;;
36379;SDS011;22411;53.016;18.632;2023-05-27T09:15:59;1.70;;;0.20;;
36379;SDS011;22411;53.016;18.632;2023-05-27T09:18:27;1.60;;;0.22;;
36379;SDS011;22411;53.016;18.632;2023-05-27T09:20:57;2.38;;;0.20;;
36379;SDS011;22411;53.016;18.632;2023-05-27T09:23:23;1.05;;;0.20;;
36379;SDS011;22411;53.016;18.632;2023-05-27T09:25:49;1.67;;;0.30;;
36379;SDS011;22411;53.016;18.632;2023-05-27T09:31:05;5.18;;;0.30;;
36379;SDS011;22411;53.016;18.632;2023-05-27T09:33:32;1.73;;;0.47;;
36379;SDS011;22411;53.016;18.632;2023-05-27T09:36:00;2.42;;;0.30;;
36379;SDS011;22411;53.016;18.632;2023-05-27T09:38:30;2.38;;;0.50;;
36379;SDS011;22411;53.016;18.632;2023-05-27T09:40:59;1.58;;;0.28;;
36379;SDS011;22411;53.016;18.632;2023-05-27T09:43:26;2.88;;;0.30;;
36379;SDS011;22411;53.016;18.632;2023-05-27T09:45:55;0.70;;;0.20;;
36379;SDS011;22411;53.016;18.632;2023-05-27T09:48:29;2.67;;;0.50;;
36379;SDS011;22411;53.016;18.632;2023-05-27T09:50:59;2.40;;;0.50;;
36379;SDS011;22411;53.016;18.632;2023-05-27T09:53:26;4.60;;;0.38;;
36379;SDS011;22411;53.016;18.632;2023-05-27T09:55:53;2.72;;;0.25;;
36379;SDS011;22411;53.016;18.632;2023-05-27T09:58:23;2.15;;;0.20;;
36379;SDS011;22411;53.016;18.632;2023-05-27T10:00:50;0.73;;;0.20;;
36379;SDS011;22411;53.016;18.632;2023-05-27T10:03:17;2.38;;;0.57;;
36379;SDS011;22411;53.016;18.632;2023-05-27T10:05:46;2.00;;;0.20;;
36379;SDS011;22411;53.016;18.632;2023-05-27T10:08:14;0.65;;;0.20;;
36379;SDS011;22411;53.016;18.632;2023-05-27T10:10:40;2.92;;;0.35;;
36379;SDS011;22411;53.016;18.632;2023-05-27T10:13:06;0.95;;;0.20;;
36379;SDS011;22411;53.016;18.632;2023-05-27T10:15:33;0.77;;;0.30;;
36379;SDS011;22411;53.016;18.632;2023-05-27T10:18:01;1.95;;;0.20;;
36379;SDS011;22411;53.016;18.632;2023-05-27T10:20:32;0.70;;;0.20;;
36379;SDS011;22411;53.016;18.632;2023-05-27T10:23:12;1.35;;;0.25;;
36379;SDS011;22411;53.016;18.632;2023-05-27T10:25:39;2.55;;;0.50;;
36379;SDS011;22411;53.016;18.632;2023-05-27T10:28:06;4.18;;;0.40;;
36379;SDS011;22411;53.016;18.632;2023-05-27T10:30:42;0.73;;;0.20;;
36379;SDS011;22411;53.016;18.632;2023-05-27T10:33:10;2.47;;;0.20;;
36379;SDS011;22411;53.016;18.632;2023-05-27T10:35:39;1.10;;;0.20;;
36379;SDS011;22411;53.016;18.632;2023-05-27T10:38:17;0.82;;;0.20;;
36379;SDS011;22411;53.016;18.632;2023-05-27T10:40:44;2.70;;;0.20;;
36379;SDS011;22411;53.016;18.632;2023-05-27T10:43:14;1.90;;;0.15;;
36379;SDS011;22411;53.016;18.632;2023-05-27T10:45:41;1.65;;;0.20;;
36379;SDS011;22411;53.016;18.632;2023-05-27T10:48:19;1.27;;;0.20;;
36379;SDS011;22411;53.016;18.632;2023-05-27T10:50:49;0.88;;;0.28;;
36379;SDS011;22411;53.016;18.632;2023-05-27T10:53:17;3.05;;;0.20;;
36379;SDS011;22411;53.016;18.632;2023-05-27T10:55:48;2.58;;;0.98;;
36379;SDS011;22411;53.016;18.632;2023-05-27T10:58:18;1.08;;;0.63;;
36379;SDS011;22411;53.016;18.632;2023-05-27T11:00:45;1.02;;;0.20;;
36379;SDS011;22411;53.016;18.632;2023-05-27T11:03:18;1.35;;;0.40;;
36379;SDS011;22411;53.016;18.632;2023-05-27T11:08:33;1.77;;;0.47;;
36379;SDS011;22411;53.016;18.632;2023-05-27T11:13:33;1.20;;;0.20;;
36379;SDS011;22411;53.016;18.632;2023-05-27T11:16:00;2.38;;;0.98;;
36379;SDS011;22411;53.016;18.632;2023-05-27T11:18:40;1.70;;;0.20;;
36379;SDS011;22411;53.016;18.632;2023-05-27T11:21:06;1.98;;;0.40;;
36379;SDS011;22411;53.016;18.632;2023-05-27T11:23:36;1.02;;;0.10;;
36379;SDS011;22411;53.016;18.632;2023-05-27T11:28:45;2.05;;;0.30;;
36379;SDS011;22411;53.016;18.632;2023-05-27T11:31:16;2.58;;;0.80;;
36379;SDS011;22411;53.016;18.632;2023-05-27T11:33:44;1.25;;;0.20;;
36379;SDS011;22411;53.016;18.632;2023-05-27T11:36:14;3.80;;;0.20;;
36379;SDS011;22411;53.016;18.632;2023-05-27T11:41:17;4.28;;;1.83;;
36379;SDS011;22411;53.016;18.632;2023-05-27T11:43:47;3.03;;;0.20;;
36379;SDS011;22411;53.016;18.632;2023-05-27T11:46:41;2.67;;;0.28;;
36379;SDS011;22411;53.016;18.632;2023-05-27T11:49:11;1.25;;;0.20;;
36379;SDS011;22411;53.016;18.632;2023-05-27T11:54:05;2.40;;;0.20;;
36379;SDS011;22411;53.016;18.632;2023-05-27T11:56:31;1.83;;;0.30;;
36379;SDS011;22411;53.016;18.632;2023-05-27T11:58:57;0.95;;;0.20;;
36379;SDS011;22411;53.016;18.632;2023-05-27T12:01:24;2.25;;;0.35;;
36379;SDS011;22411;53.016;18.632;2023-05-27T12:03:50;3.20;;;0.30;;
36379;SDS011;22411;53.016;18.632;2023-05-27T12:06:16;2.28;;;0.20;;
36379;SDS011;22411;53.016;18.632;2023-05-27T12:08:42;2.03;;;0.20;;
36379;SDS011;22411;53.016;18.632;2023-05-27T12:11:08;1.45;;;0.22;;
36379;SDS011;22411;53.016;18.632;2023-05-27T12:13:34;1.00;;;0.20;;
36379;SDS011;22411;53.016;18.632;2023-05-27T12:16:00;0.70;;;0.20;;
36379;SDS011;22411;53.016;18.632;2023-05-27T12:18:28;1.92;;;0.20;;
36379;SDS011;22411;53.016;18.632;2023-05-27T12:20:54;4.22;;;0.25;;
36379;SDS011;22411;53.016;18.632;2023-05-27T12:23:19;1.52;;;0.22;;
36379;SDS011;22411;53.016;18.632;2023-05-27T12:25:45;2.03;;;0.20;;
36379;SDS011;22411;53.016;18.632;2023-05-27T12:28:11;1.27;;;0.20;;
36379;SDS011;22411;53.016;18.632;2023-05-27T12:30:37;1.25;;;0.30;;
36379;SDS011;22411;53.016;18.632;2023-05-27T12:33:03;1.27;;;0.20;;
36379;SDS011;22411;53.016;18.632;2023-05-27T12:35:29;3.05;;;0.40;;
36379;SDS011;22411;53.016;18.632;2023-05-27T12:37:56;1.98;;;0.30;;
36379;SDS011;22411;53.016;18.632;2023-05-27T12:40:22;2.35;;;0.30;;
36379;SDS011;22411;53.016;18.632;2023-05-27T12:42:48;3.63;;;0.20;;
36379;SDS011;22411;53.016;18.632;2023-05-27T12:45:14;1.35;;;0.20;;
36379;SDS011;22411;53.016;18.632;2023-05-27T12:47:39;1.05;;;0.20;;
36379;SDS011;22411;53.016;18.632;2023-05-27T12:50:06;2.35;;;0.20;;
36379;SDS011;22411;53.016;18.632;2023-05-27T12:52:32;1.58;;;0.17;;
36379;SDS011;22411;53.016;18.632;2023-05-27T12:54:58;2.35;;;0.35;;
36379;SDS011;22411;53.016;18.632;2023-05-27T12:57:23;2.22;;;1.25;;
36379;SDS011;22411;53.016;18.632;2023-05-27T12:59:49;2.72;;;0.20;;
36379;SDS011;22411;53.016;18.632;2023-05-27T13:02:15;1.40;;;0.28;;
36379;SDS011;22411;53.016;18.632;2023-05-27T13:04:40;1.70;;;0.28;;
36379;SDS011;22411;53.016;18.632;2023-05-27T13:07:09;1.20;;;0.20;;
36379;SDS011;22411;53.016;18.632;2023-05-27T13:09:37;0.85;;;0.15;;
36379;SDS011;22411;53.016;18.632;2023-05-27T13:12:03;1.20;;;0.30;;
36379;SDS011;22411;53.016;18.632;2023-05-27T13:14:30;2.63;;;0.30;;
36379;SDS011;22411;53.016;18.632;2023-05-27T13:16:55;2.50;;;0.20;;
36379;SDS011;22411;53.016;18.632;2023-05-27T13:19:22;2.85;;;2.60;;
36379;SDS011;22411;53.016;18.632;2023-05-27T13:21:49;1.90;;;0.40;;
36379;SDS011;22411;53.016;18.632;2023-05-27T13:24:15;1.02;;;0.40;;
36379;SDS011;22411;53.016;18.632;2023-05-27T13:26:41;1.88;;;0.30;;
36379;SDS011;22411;53.016;18.632;2023-05-27T13:29:06;0.90;;;0.20;;
36379;SDS011;22411;53.016;18.632;2023-05-27T13:31:32;1.95;;;0.28;;
36379;SDS011;22411;53.016;18.632;2023-05-27T13:33:58;0.82;;;0.10;;
36379;SDS011;22411;53.016;18.632;2023-05-27T13:36:23;3.72;;;0.30;;
36379;SDS011;22411;53.016;18.632;2023-05-27T13:38:49;0.98;;;0.15;;
36379;SDS011;22411;53.016;18.632;2023-05-27T13:41:15;1.65;;;1.00;;
36379;SDS011;22411;53.016;18.632;2023-05-27T13:43:41;1.67;;;0.52;;
36379;SDS011;22411;53.016;18.632;2023-05-27T13:46:06;1.23;;;0.17;;
36379;SDS011;22411;53.016;18.632;2023-05-27T13:48:32;1.55;;;0.20;;
36379;SDS011;22411;53.016;18.632;2023-05-27T13:50:58;3.90;;;0.65;;
36379;SDS011;22411;53.016;18.632;2023-05-27T13:53:24;1.88;;;0.30;;
36379;SDS011;22411;53.016;18.632;2023-05-27T13:55:49;4.00;;;0.30;;
36379;SDS011;22411;53.016;18.632;2023-05-27T13:58:16;0.80;;;0.20;;
36379;SDS011;22411;53.016;18.632;2023-05-27T14:00:43;1.27;;;0.20;;
36379;SDS011;22411;53.016;18.632;2023-05-27T14:03:09;1.65;;;0.30;;
36379;SDS011;22411;53.016;18.632;2023-05-27T14:05:35;1.55;;;0.15;;
36379;SDS011;22411;53.016;18.632;2023-05-27T14:08:02;1.95;;;0.20;;
36379;SDS011;22411;53.016;18.632;2023-05-27T14:10:29;2.10;;;0.50;;
36379;SDS011;22411;53.016;18.632;2023-05-27T14:12:57;1.23;;;0.20;;
36379;SDS011;22411;53.016;18.632;2023-05-27T14:15:23;1.20;;;0.17;;
36379;SDS011;22411;53.016;18.632;2023-05-27T14:17:53;0.93;;;0.30;;
36379;SDS011;22411;53.016;18.632;2023-05-27T14:20:22;1.50;;;0.27;;
36379;SDS011;22411;53.016;18.632;2023-05-27T14:22:48;1.08;;;0.32;;
36379;SDS011;22411;53.016;18.632;2023-05-27T14:25:13;1.30;;;0.20;;
36379;SDS011;22411;53.016;18.632;2023-05-27T14:27:40;4.35;;;0.35;;
36379;SDS011;22411;53.016;18.632;2023-05-27T14:30:06;1.85;;;0.30;;
36379;SDS011;22411;53.016;18.632;2023-05-27T14:32:32;3.15;;;0.10;;
36379;SDS011;22411;53.016;18.632;2023-05-27T14:34:58;2.38;;;0.30;;
36379;SDS011;22411;53.016;18.632;2023-05-27T14:37:23;1.15;;;0.20;;
36379;SDS011;22411;53.016;18.632;2023-05-27T14:39:52;0.82;;;0.10;;
36379;SDS011;22411;53.016;18.632;2023-05-27T14:42:18;1.52;;;0.35;;
36379;SDS011;22411;53.016;18.632;2023-05-27T14:44:45;0.85;;;0.20;;
36379;SDS011;22411;53.016;18.632;2023-05-27T14:47:11;1.98;;;0.30;;